Bruce Mines, Canada
Current Conditions -  °F | °C
As of 6:55 PM on Saturday 22 Nov 2014 (Local Time) from KDRM Reporting Station
Light Rain Light Rain  
Wind Chill: 34°   Ceiling: 200
Heat Index: 38°   Visibility: 1mi
Dew Point: 38°   Wind: 5mph
Humidity: 100%   Direction: 200°SSW
Pressure: 29.75"   Gusts: NA
Location:  46.3°N, 83.79°W
Report Text: KDRM 222355Z AUTO 20004KT 1SM -RA OVC002 03/03 A2975 RMK AO2 T00310031 10037 20030
Loading
Personal Weather Stations






























Interactive Weather Map New forecast layout! Learn more

10-Day Weather Forecast

Advertisements
Track Severe Weather on mobile